aviador You're here:

YCFS Decoded Metar

in
Report Time2018-01-18 11:00:00
UTC Time2018-01-18 11:36:16
Flight Rules vfr VFR
WindCalm
Visibility9999 m
Phenomena:N/A
Clouds:N/A
Expected CloudBase > 400 ft AGL from Temp-Dew spread
CeilingNone
Temp17°C
Dew Point16°C (94% RH)
QNH1018 hPa
Raw Report
METAR YCFS 181100Z AUTO 00000KT 9999 // NCD 17/16 Q1018=

Extra information for YCFS:More info

Social comments